Terminal Aerodrome Forecast
Issued by NWS

Home | Current Version | Previous Version | Text Only | Print | Product List | Glossary On
Versions: 1 2 3 4 5 6 7 8 9 10 11 12 13 14 15 16 17 18 19 20 21 22 23 24 25 26 27 28 29 30 31 32 33 34 35 36 37 38 39 40 41 42 43 44 45 46
000
FTUS42 KGSP 040201 AAA
TAFHKY
TAF AMD
KHKY 040201Z 0402/0424 18003KT 1 1/2SM -RA BR BKN003
     FM040400 20005KT 1SM BR OVC003 WS020/23045KT
     FM040800 22007KT 1/2SM FG OVC005 WS020/23045KT
     FM041100 22006KT 6SM BR OVC110 WS020/24040KT
     FM041500 22009KT P6SM BKN110=

USA.gov is the U.S. government's official web portal to all federal, state and local government web resources and services.